Maryland METAR Reports


Distance/Direction noted is from Ellicott City, MD as the crow flies

KCBE - Cumberland - 118 miles WNW
Updated: Wed, 10/22/2014 10:33 PM
Overcast
Overcast
 Wind from NNW
Wind: NNW 12 mph, Gust: 22 mph
Temperature: 52°F
Dew Point: 41°F
Humidity: 67%
Barometer: 30.12 inHg
Clouds: Overcast
Visibility: 10 miles
Cloud Details: Overcast 2900 ft
2014/10/23 02:33 KCBE 230233Z AUTO 33010G19KT 10SM OVC029 11/05 A3012 RMK AO1
KHGR - Hagerstown - 57 miles NW
Updated: Wed, 10/22/2014 9:53 PM
Few Clouds
Few Clouds
 Wind from NW
Wind: NW 13 mph
Temperature: 50°F
Wind Chill: 45°F
Dew Point: 41°F
Humidity: 71%
Barometer: 30.01 inHg
Clouds: Few Clouds
Visibility: 10 miles
Cloud Details: Few Clouds 5000 ft
2014/10/23 01:53 KHGR 230153Z AUTO 32011KT 10SM FEW050 10/05 A3001 RMK AO2 SLP173 T01000050 TSNO
 
KFDK - Frederick - 34 miles NW
Updated: Wed, 10/22/2014 10:30 PM
Mostly Cloudy
Mostly Cloudy
 Wind from NNW
Wind: NNW 12 mph, Gust: 17 mph
Temperature: 55°F
Dew Point: 43°F
Humidity: 63%
Barometer: 29.99 inHg
Clouds: Mostly Cloudy
Visibility: 10 miles
Cloud Details: Mostly Cloudy 3600 ft
Mostly Cloudy 7500 ft
2014/10/23 02:30 KFDK 230230Z AUTO 34010G15KT 10SM BKN036 BKN075 13/06 A2999 RMK AO2 LTG DSNT E
KGAI - Gaithersburg - 26 miles SW
Updated: Wed, 10/22/2014 10:35 PM
Overcast
Overcast
 Wind from NW
Wind: NW 12 mph, Gust: 16 mph
Temperature: 52°F
Dew Point: 43°F
Humidity: 72%
Barometer: 29.99 inHg
Clouds: Overcast
Visibility: 10 miles
Cloud Details: Overcast 3400 ft
2014/10/23 02:35 KGAI 230235Z 31010G14KT 10SM OVC034 11/06 A2999 RMK AO1
 
KBWI - BWI Airport - 15 miles SE
Updated: Wed, 10/22/2014 9:54 PM
Mostly Cloudy
Mostly Cloudy
 Wind from NNW
Wind: NNW 13 mph, Gust: 25 mph
Temperature: 54°F
Dew Point: 45°F
Humidity: 72%
Barometer: 29.92 inHg
Clouds: Mostly Cloudy
Visibility: 10 miles
Cloud Details: Few Clouds 3000 ft
Mostly Cloudy 3700 ft
Mostly Cloudy 6000 ft
2014/10/23 01:54 KBWI 230154Z 33011G22KT 10SM FEW030 BKN037 BKN060 12/07 A2992 RMK AO2 SLP130 T01220067
KNAK - Annapolis - 32 miles SSE
Updated: Wed, 10/22/2014 10:54 PM
Light rain, Overcast
Light rain, Overcast
 Wind from NNW
Wind: NNW 20 mph, Gust: 24 mph
Temperature: 55°F
Dew Point: 46°F
Humidity: 72%
Barometer: 29.90 inHg
Summary: Light Rain
Clouds: Overcast
Visibility: 10 miles
Cloud Details: Mostly Cloudy 9000 ft
Overcast 11000 ft
2014/10/23 02:54 KNAK 230254Z AUTO 33017G21KT 10SM -RA BKN090 OVC110 13/08 A2990 RMK AO2 SLP125 P0000 60001 T01330078 58003
 
KESN - Easton - 63 miles SE
Updated: Wed, 10/22/2014 10:45 PM
Light rain, Mostly cloudy
Light rain, Mostly cloudy
 Wind from N
Wind: N 16 mph, Gust: 23 mph
Temperature: 55°F
Dew Point: 50°F
Humidity: 82%
Barometer: 29.90 inHg
Summary: Light Rain
Clouds: Mostly Cloudy
Visibility: 10 miles
Cloud Details: Partly Cloudy 2800 ft
Partly Cloudy 3700 ft
Mostly Cloudy 4800 ft
2014/10/23 02:45 KESN 230245Z AUTO 35014G20KT 10SM -RA SCT028 SCT037 BKN048 13/10 A2990 RMK AO2 T01290101
KSBY - Salisbury - 112 miles SE
Updated: Wed, 10/22/2014 9:54 PM
Overcast
Overcast
 Wind from NW
Wind: NW 17 mph, Gust: 29 mph
Temperature: 55°F
Dew Point: 48°F
Humidity: 77%
Barometer: 29.83 inHg
Clouds: Overcast
Visibility: 10 miles
Cloud Details: Mostly Cloudy 1900 ft
Overcast 2500 ft
2014/10/23 01:54 KSBY 230154Z 32015G25KT 280V340 10SM BKN019 OVC025 13/09 A2983 RMK AO2 RAE31 SLP102 P0000 T01330094